createdAt,value
2019-02-19T00:00:40.798Z,-1.95
2019-02-19T00:03:07.505Z,-1.97
2019-02-19T00:05:34.254Z,-1.96
2019-02-19T00:08:00.972Z,-1.98
2019-02-19T00:10:27.682Z,-1.98
2019-02-19T00:12:54.368Z,-2.00
2019-02-19T00:15:20.975Z,-2.01
2019-02-19T00:17:47.586Z,-2.02
2019-02-19T00:20:14.199Z,-2.02
2019-02-19T00:22:40.891Z,-2.00
2019-02-19T00:25:07.507Z,-1.99
2019-02-19T00:27:34.115Z,-1.99
2019-02-19T00:30:00.823Z,-1.99
2019-02-19T00:32:27.525Z,-1.97
2019-02-19T00:34:54.145Z,-1.97
2019-02-19T00:37:20.767Z,-1.96
2019-02-19T00:39:47.377Z,-1.97
2019-02-19T00:42:13.994Z,-1.96
2019-02-19T00:44:40.603Z,-1.96
2019-02-19T00:47:07.215Z,-1.93
2019-02-19T00:49:33.818Z,-1.91
2019-02-19T00:52:00.424Z,-1.91
2019-02-19T00:54:27.146Z,-1.92
2019-02-19T00:56:53.754Z,-1.92
2019-02-19T00:59:20.372Z,-1.91
2019-02-19T01:01:46.972Z,-1.92
2019-02-19T01:04:13.597Z,-1.94
2019-02-19T01:06:40.201Z,-1.93
2019-02-19T01:09:06.964Z,-1.94
2019-02-19T01:11:33.593Z,-1.96
2019-02-19T01:14:00.318Z,-1.97
2019-02-19T01:16:26.938Z,-2.00
2019-02-19T01:18:53.598Z,-2.03
2019-02-19T01:21:20.288Z,-2.07
2019-02-19T01:23:46.907Z,-2.13
2019-02-19T01:26:13.527Z,-2.16
2019-02-19T01:28:40.150Z,-2.14
2019-02-19T01:31:06.852Z,-2.12
2019-02-19T01:33:33.474Z,-2.10
2019-02-19T01:36:00.184Z,-2.12
2019-02-19T01:38:26.792Z,-2.13
2019-02-19T01:40:53.567Z,-2.12
2019-02-19T01:43:20.289Z,-2.13
2019-02-19T01:45:46.889Z,-2.16
2019-02-19T01:48:13.494Z,-2.15
2019-02-19T01:50:40.118Z,-2.13
2019-02-19T01:53:06.825Z,-2.12
2019-02-19T01:55:33.435Z,-2.12
2019-02-19T01:58:00.048Z,-2.13
2019-02-19T02:00:26.658Z,-2.15
2019-02-19T02:02:53.260Z,-2.16
2019-02-19T02:05:19.979Z,-2.19
2019-02-19T02:07:46.593Z,-2.19
2019-02-19T02:10:13.320Z,-2.21
2019-02-19T02:12:39.929Z,-2.21
2019-02-19T02:15:06.587Z,-2.21
2019-02-19T02:17:33.295Z,-2.23
2019-02-19T02:19:59.907Z,-2.24
2019-02-19T02:22:26.601Z,-2.23
2019-02-19T02:24:53.218Z,-2.20
2019-02-19T02:27:19.923Z,-2.19
2019-02-19T02:29:46.550Z,-2.19
2019-02-19T02:32:13.275Z,-2.17
2019-02-19T02:34:39.979Z,-2.18
2019-02-19T02:37:06.606Z,-2.15
2019-02-19T02:39:33.211Z,-2.15
2019-02-19T02:41:59.941Z,-2.12
2019-02-19T02:44:26.557Z,-2.13
2019-02-19T02:46:53.279Z,-2.10
2019-02-19T02:49:19.872Z,-2.10
2019-02-19T02:51:46.525Z,-2.13
2019-02-19T02:54:13.234Z,-2.15
2019-02-19T02:56:39.837Z,-2.12
2019-02-19T02:59:06.444Z,-2.05
2019-02-19T03:01:33.051Z,-1.99
2019-02-19T03:03:59.761Z,-1.95
2019-02-19T03:06:44.611Z,-1.94
2019-02-19T03:09:11.218Z,-1.94
2019-02-19T03:11:37.834Z,-1.95
2019-02-19T03:14:04.569Z,-1.95
2019-02-19T03:16:31.265Z,-1.97
2019-02-19T03:18:57.886Z,-1.97
2019-02-19T03:21:24.503Z,-1.97
2019-02-19T03:23:51.124Z,-1.98
2019-02-19T03:26:17.837Z,-1.99
2019-02-19T03:28:44.556Z,-1.99
2019-02-19T03:31:11.174Z,-2.00
2019-02-19T03:33:37.886Z,-1.99
2019-02-19T03:36:04.492Z,-1.98
2019-02-19T03:38:31.116Z,-1.98
2019-02-19T03:40:57.819Z,-1.99
2019-02-19T03:43:24.434Z,-2.01
2019-02-19T03:45:51.153Z,-2.03
2019-02-19T03:48:17.879Z,-2.04
2019-02-19T03:50:44.494Z,-2.05
2019-02-19T03:53:11.097Z,-2.05
2019-02-19T03:55:37.802Z,-2.05
2019-02-19T03:58:04.420Z,-2.05
2019-02-19T04:00:31.059Z,-2.06
2019-02-19T04:02:57.766Z,-2.07
2019-02-19T04:05:24.519Z,-2.08
2019-02-19T04:07:51.124Z,-2.08
2019-02-19T04:10:17.748Z,-2.08
2019-02-19T04:12:44.366Z,-2.09
2019-02-19T04:15:11.116Z,-2.08
2019-02-19T04:17:37.884Z,-2.07
2019-02-19T04:20:04.732Z,-2.07
2019-02-19T04:22:31.450Z,-2.08
2019-02-19T04:24:58.057Z,-2.11
2019-02-19T04:27:24.684Z,-2.15
2019-02-19T04:29:51.297Z,-2.18
2019-02-19T04:32:17.911Z,-2.20
2019-02-19T04:34:44.615Z,-2.20
2019-02-19T04:37:11.243Z,-2.18
2019-02-19T04:39:37.881Z,-2.17
2019-02-19T04:42:04.593Z,-2.16
2019-02-19T04:44:31.216Z,-2.14
2019-02-19T04:46:57.938Z,-2.13
2019-02-19T04:49:24.550Z,-2.11
2019-02-19T04:51:51.275Z,-2.08
2019-02-19T04:54:17.879Z,-2.07
2019-02-19T04:56:44.488Z,-2.07
2019-02-19T04:59:11.100Z,-2.07
2019-02-19T05:01:37.792Z,-2.07
2019-02-19T05:04:04.388Z,-2.08
2019-02-19T05:06:30.995Z,-2.07
2019-02-19T05:08:57.596Z,-2.06
2019-02-19T05:11:24.198Z,-2.06
2019-02-19T05:13:50.804Z,-2.06
2019-02-19T05:16:17.389Z,-2.08
2019-02-19T05:18:43.999Z,-2.11
2019-02-19T05:21:10.593Z,-2.15
2019-02-19T05:23:37.212Z,-2.17
2019-02-19T05:26:03.814Z,-2.18
2019-02-19T05:28:30.433Z,-2.17
2019-02-19T05:30:57.033Z,-2.19
2019-02-19T05:33:23.668Z,-2.17
2019-02-19T05:35:50.343Z,-2.16
2019-02-19T05:38:16.973Z,-2.16
2019-02-19T05:40:43.566Z,-2.15
2019-02-19T05:43:10.258Z,-2.15
2019-02-19T05:45:36.841Z,-2.16
2019-02-19T05:48:05.265Z,-2.17
2019-02-19T05:50:31.928Z,-2.17
2019-02-19T05:52:58.526Z,-2.22
2019-02-19T05:55:25.227Z,-2.26
2019-02-19T05:57:51.836Z,-2.27
2019-02-19T06:00:18.548Z,-2.29
2019-02-19T06:02:45.128Z,-2.31
2019-02-19T06:05:11.742Z,-2.30
2019-02-19T06:07:38.446Z,-2.25
2019-02-19T06:10:05.533Z,-1.59
2019-02-19T06:12:32.232Z,-1.01
2019-02-19T06:14:58.852Z,-0.74
2019-02-19T06:17:25.438Z,-0.56
2019-02-19T06:19:52.038Z,-0.31
2019-02-19T06:22:18.630Z,0.09
2019-02-19T06:24:45.690Z,0.29
2019-02-19T06:27:12.299Z,0.47
2019-02-19T06:29:38.984Z,0.60
2019-02-19T06:32:05.570Z,0.44
2019-02-19T06:34:32.184Z,0.36
2019-02-19T06:36:58.790Z,0.12
2019-02-19T06:39:25.498Z,0.00
2019-02-19T06:41:52.220Z,0.03
2019-02-19T06:44:18.910Z,-0.05
2019-02-19T06:46:45.608Z,-0.22
2019-02-19T06:49:12.237Z,-0.41
2019-02-19T06:51:38.951Z,-0.57
2019-02-19T06:54:05.559Z,-0.74
2019-02-19T06:56:32.158Z,-0.86
2019-02-19T06:58:58.844Z,-0.90
2019-02-19T07:01:54.072Z,-0.93
2019-02-19T07:04:30.044Z,-0.94
2019-02-19T07:06:56.625Z,-0.92
2019-02-19T07:09:23.233Z,-0.93
2019-02-19T07:11:49.829Z,-0.96
2019-02-19T07:14:16.438Z,-0.95
2019-02-19T07:16:43.160Z,-0.93
2019-02-19T07:19:09.865Z,-0.90
2019-02-19T07:21:36.477Z,-0.83
2019-02-19T07:24:04.701Z,-0.78
2019-02-19T07:26:31.466Z,-0.69
2019-02-19T07:28:58.111Z,-0.63
2019-02-19T07:31:24.815Z,-0.56
2019-02-19T07:33:51.413Z,-0.47
2019-02-19T07:36:18.020Z,-0.35
2019-02-19T07:38:44.613Z,-0.25
2019-02-19T07:41:11.235Z,-0.15
2019-02-19T07:43:37.829Z,-0.03
2019-02-19T07:46:04.554Z,0.10
2019-02-19T07:48:31.159Z,0.22
2019-02-19T07:50:57.769Z,0.43
2019-02-19T07:53:24.357Z,0.61
2019-02-19T07:55:50.978Z,0.77
2019-02-19T07:58:17.580Z,0.91
2019-02-19T08:00:44.188Z,0.99
2019-02-19T08:03:10.804Z,1.06
2019-02-19T08:05:37.516Z,1.11
2019-02-19T08:08:04.219Z,1.17
2019-02-19T08:10:30.813Z,1.26
2019-02-19T08:12:57.404Z,1.37
2019-02-19T08:15:24.004Z,1.47
2019-02-19T08:17:50.607Z,1.57
2019-02-19T08:20:17.240Z,1.69
2019-02-19T08:22:43.850Z,1.80
2019-02-19T08:25:10.472Z,1.92
2019-02-19T08:27:37.144Z,2.06
2019-02-19T08:30:03.876Z,2.14
2019-02-19T08:32:30.470Z,2.21
2019-02-19T08:34:57.156Z,2.28
2019-02-19T08:37:23.773Z,2.36
2019-02-19T08:39:50.468Z,2.44
2019-02-19T08:42:17.052Z,2.53
2019-02-19T08:44:43.636Z,2.66
2019-02-19T08:47:10.222Z,2.78
2019-02-19T08:49:36.841Z,2.89
2019-02-19T08:52:03.435Z,3.02
2019-02-19T08:54:30.028Z,3.08
2019-02-19T08:56:56.633Z,3.13
2019-02-19T08:59:23.242Z,3.22
2019-02-19T09:01:49.873Z,3.31
2019-02-19T09:04:16.484Z,3.52
2019-02-19T09:06:43.082Z,3.68
2019-02-19T09:09:09.660Z,3.80
2019-02-19T09:11:39.144Z,3.90
2019-02-19T09:14:05.774Z,3.98
2019-02-19T09:16:32.495Z,4.08
2019-02-19T09:18:59.213Z,4.27
2019-02-19T09:21:25.832Z,4.40
2019-02-19T09:23:52.433Z,4.48
2019-02-19T09:26:19.029Z,4.63
2019-02-19T09:28:45.747Z,4.88
2019-02-19T09:31:12.339Z,5.18
2019-02-19T09:33:38.968Z,5.45
2019-02-19T09:36:05.581Z,5.69
2019-02-19T09:38:32.193Z,5.92
2019-02-19T09:40:58.781Z,6.06
2019-02-19T09:43:25.477Z,6.15
2019-02-19T09:45:52.074Z,6.23
2019-02-19T09:48:18.689Z,6.32
2019-02-19T09:50:45.385Z,6.43
2019-02-19T09:53:12.014Z,6.55
2019-02-19T09:55:38.711Z,6.69
2019-02-19T09:58:05.437Z,6.80
2019-02-19T10:00:32.110Z,6.94
2019-02-19T10:02:58.721Z,7.04
2019-02-19T10:05:25.411Z,7.19
2019-02-19T10:07:52.023Z,7.40
2019-02-19T10:10:18.631Z,7.67
2019-02-19T10:12:45.242Z,7.95
2019-02-19T10:15:11.845Z,8.23
2019-02-19T10:17:38.549Z,8.53
2019-02-19T10:20:05.369Z,8.83
2019-02-19T10:22:31.966Z,9.14
2019-02-19T10:24:58.658Z,9.43
2019-02-19T10:27:25.268Z,9.73
2019-02-19T10:29:51.873Z,9.95
2019-02-19T10:32:18.586Z,10.15
2019-02-19T10:34:45.192Z,10.35
2019-02-19T10:37:11.796Z,10.57
2019-02-19T10:39:38.392Z,10.79
2019-02-19T10:42:05.028Z,10.95
2019-02-19T10:44:31.648Z,11.07
2019-02-19T10:46:58.380Z,11.23
2019-02-19T10:49:25.099Z,11.33
2019-02-19T10:51:51.766Z,11.41
2019-02-19T10:54:18.352Z,11.50
2019-02-19T10:56:44.960Z,11.63
2019-02-19T10:59:11.586Z,11.71
2019-02-19T11:01:38.195Z,11.76
2019-02-19T11:04:04.814Z,11.77
2019-02-19T11:06:31.410Z,11.81
2019-02-19T11:08:58.204Z,11.84
2019-02-19T11:11:24.873Z,11.71
2019-02-19T11:13:51.546Z,11.57
2019-02-19T11:16:18.168Z,11.44
2019-02-19T11:18:44.861Z,11.34
2019-02-19T11:21:19.326Z,11.29
2019-02-19T11:23:40.012Z,11.34
2019-02-19T11:26:06.618Z,11.43
2019-02-19T11:28:33.373Z,11.60
2019-02-19T11:30:59.979Z,11.84
2019-02-19T11:33:26.579Z,11.98
2019-02-19T11:35:54.816Z,12.23
2019-02-19T11:38:21.659Z,12.42
2019-02-19T11:40:48.262Z,12.63
2019-02-19T11:43:14.875Z,12.72
2019-02-19T11:45:41.468Z,12.81
2019-02-19T11:48:08.108Z,12.87
2019-02-19T11:50:34.717Z,12.86
2019-02-19T11:53:01.313Z,12.88
2019-02-19T11:55:27.927Z,12.87
2019-02-19T11:57:54.531Z,12.83
2019-02-19T12:00:25.210Z,12.79
2019-02-19T12:02:51.793Z,12.78
2019-02-19T12:05:18.422Z,12.81
2019-02-19T12:07:45.121Z,12.83
2019-02-19T12:10:12.164Z,12.89
2019-02-19T12:12:38.833Z,12.92
2019-02-19T12:15:05.540Z,12.90
2019-02-19T12:17:32.235Z,12.88
2019-02-19T12:19:58.841Z,12.86
2019-02-19T12:22:25.470Z,12.93
2019-02-19T12:24:52.083Z,13.00
2019-02-19T12:27:18.693Z,12.97
2019-02-19T12:29:45.311Z,12.92
2019-02-19T12:32:11.906Z,12.98
2019-02-19T12:34:38.518Z,13.01
2019-02-19T12:37:05.200Z,13.03
2019-02-19T12:39:31.806Z,13.08
2019-02-19T12:41:58.504Z,13.23
2019-02-19T12:44:25.125Z,13.29
2019-02-19T12:46:51.724Z,13.26
2019-02-19T12:49:18.336Z,13.24
2019-02-19T12:51:45.076Z,13.29
2019-02-19T12:54:11.704Z,13.32
2019-02-19T12:56:38.397Z,13.30
2019-02-19T12:59:05.024Z,13.15
2019-02-19T13:01:31.680Z,13.15
2019-02-19T13:03:58.379Z,13.14
2019-02-19T13:06:25.089Z,13.14
2019-02-19T13:08:51.692Z,13.11
2019-02-19T13:11:18.329Z,13.15
2019-02-19T13:13:45.034Z,13.20
2019-02-19T13:16:11.656Z,13.34
2019-02-19T13:18:38.302Z,13.51
2019-02-19T13:21:04.906Z,13.65
2019-02-19T13:23:31.515Z,13.78
2019-02-19T13:25:58.264Z,13.77
2019-02-19T13:28:24.956Z,13.66
2019-02-19T13:30:51.566Z,13.56
2019-02-19T13:33:23.312Z,13.37
2019-02-19T13:35:50.723Z,13.31
2019-02-19T13:38:17.452Z,13.40
2019-02-19T13:40:44.048Z,13.43
2019-02-19T13:43:10.659Z,13.43
2019-02-19T13:45:37.268Z,13.45
2019-02-19T13:48:05.817Z,13.44
2019-02-19T13:50:32.449Z,13.34
2019-02-19T13:53:17.083Z,13.37
2019-02-19T13:55:47.021Z,13.30
2019-02-19T13:58:13.701Z,12.97
2019-02-19T14:00:41.130Z,12.78
2019-02-19T14:03:07.728Z,12.76
2019-02-19T14:05:34.437Z,12.78
2019-02-19T14:08:01.128Z,12.81
2019-02-19T14:10:27.763Z,12.86
2019-02-19T14:12:54.362Z,12.88
2019-02-19T14:15:45.062Z,12.93
2019-02-19T14:18:12.723Z,13.03
2019-02-19T14:20:58.840Z,13.14
2019-02-19T14:24:00.205Z,13.25
2019-02-19T14:26:44.923Z,13.39
2019-02-19T14:29:37.103Z,13.64
2019-02-19T14:32:28.991Z,13.84
2019-02-19T14:35:33.345Z,14.05
2019-02-19T14:38:25.273Z,14.31
2019-02-19T14:41:07.961Z,14.50
2019-02-19T14:44:03.083Z,14.61
2019-02-19T14:46:48.151Z,14.73
2019-02-19T14:49:37.318Z,14.83
2019-02-19T14:52:17.766Z,14.89
2019-02-19T14:55:02.465Z,14.72
2019-02-19T14:57:54.640Z,14.58
2019-02-19T15:00:43.530Z,14.44
2019-02-19T15:03:47.937Z,14.40
2019-02-19T15:06:29.606Z,14.40
2019-02-19T15:09:30.777Z,14.20
2019-02-19T15:12:25.892Z,13.84
2019-02-19T15:15:20.618Z,13.32
2019-02-19T15:18:05.477Z,12.74
2019-02-19T15:20:43.557Z,12.22
2019-02-19T15:23:28.242Z,11.84
2019-02-19T15:26:13.220Z,11.48
2019-02-19T15:28:58.038Z,11.09
2019-02-19T15:31:42.223Z,10.82
2019-02-19T15:34:28.349Z,10.57
2019-02-19T15:37:07.849Z,10.34
2019-02-19T15:39:52.831Z,10.26
2019-02-19T15:42:42.000Z,10.28
2019-02-19T15:45:26.715Z,10.21
2019-02-19T15:48:12.869Z,10.03
2019-02-19T15:50:57.518Z,9.79
2019-02-19T15:53:43.762Z,9.54
2019-02-19T15:56:41.958Z,9.31
2019-02-19T15:59:19.859Z,9.18
2019-02-19T16:02:06.002Z,9.07
2019-02-19T16:04:51.929Z,8.96
2019-02-19T16:07:38.046Z,8.78
2019-02-19T16:10:24.716Z,8.56
2019-02-19T16:13:07.749Z,8.37
2019-02-19T16:15:57.053Z,8.23
2019-02-19T16:18:52.281Z,8.15
2019-02-19T16:21:37.141Z,8.09
2019-02-19T16:24:25.953Z,8.02
2019-02-19T16:27:12.089Z,7.94
2019-02-19T16:29:58.226Z,7.88
2019-02-19T16:32:35.449Z,7.81
2019-02-19T16:35:24.655Z,7.76
2019-02-19T16:38:20.105Z,7.69
2019-02-19T16:41:14.375Z,7.56
2019-02-19T16:44:09.794Z,7.45
2019-02-19T16:46:54.873Z,7.32
2019-02-19T16:49:47.364Z,7.17
2019-02-19T16:52:36.774Z,7.07
2019-02-19T16:55:16.011Z,6.94
2019-02-19T16:57:47.811Z,6.87
2019-02-19T17:00:22.851Z,6.77
2019-02-19T17:03:09.075Z,6.67
2019-02-19T17:06:01.104Z,6.55
2019-02-19T17:08:52.117Z,6.48
2019-02-19T17:11:45.374Z,6.46
2019-02-19T17:14:34.388Z,6.46
2019-02-19T17:17:23.446Z,6.44
2019-02-19T17:20:26.438Z,6.46
2019-02-19T17:23:06.364Z,6.45
2019-02-19T17:26:01.966Z,6.41
2019-02-19T17:28:48.200Z,6.33
2019-02-19T17:31:30.684Z,6.22
2019-02-19T17:34:16.050Z,6.14
2019-02-19T17:36:53.345Z,6.03
2019-02-19T17:39:30.855Z,5.94
2019-02-19T17:42:23.365Z,5.87
2019-02-19T17:45:09.621Z,5.80
2019-02-19T17:47:54.545Z,5.80
2019-02-19T17:50:58.838Z,5.76
2019-02-19T17:53:54.060Z,5.80
2019-02-19T17:56:43.350Z,5.82
2019-02-19T17:59:29.475Z,5.80
2019-02-19T18:02:10.030Z,5.78
2019-02-19T18:05:02.507Z,5.74
2019-02-19T18:08:07.113Z,5.68
2019-02-19T18:10:53.250Z,5.72
2019-02-19T18:13:59.824Z,5.81
2019-02-19T18:16:49.276Z,5.82
2019-02-19T18:19:16.125Z,5.78
2019-02-19T18:21:42.924Z,5.75
2019-02-19T18:24:09.771Z,5.67
2019-02-19T18:26:36.767Z,5.56
2019-02-19T18:29:03.564Z,5.44
2019-02-19T18:31:32.047Z,5.36
2019-02-19T18:33:58.860Z,5.31
2019-02-19T18:36:25.667Z,5.29
2019-02-19T18:38:52.475Z,5.27
2019-02-19T18:41:19.281Z,5.25
2019-02-19T18:43:47.162Z,5.20
2019-02-19T18:46:13.964Z,5.16
2019-02-19T18:48:40.723Z,5.13
2019-02-19T18:51:07.543Z,5.13
2019-02-19T18:53:34.321Z,5.15
2019-02-19T18:56:01.149Z,5.15
2019-02-19T18:58:28.241Z,5.19
2019-02-19T19:00:55.239Z,5.20
2019-02-19T19:03:22.079Z,5.20
2019-02-19T19:05:48.912Z,5.28
2019-02-19T19:08:16.169Z,5.40
2019-02-19T19:10:43.144Z,5.54
2019-02-19T19:13:10.003Z,5.58
2019-02-19T19:15:36.876Z,5.59
2019-02-19T19:18:04.618Z,5.60
2019-02-19T19:20:31.899Z,5.68
2019-02-19T19:22:58.973Z,5.76
2019-02-19T19:25:26.319Z,5.74
2019-02-19T19:27:55.435Z,5.70
2019-02-19T19:30:22.840Z,5.69
2019-02-19T19:32:51.053Z,5.70
2019-02-19T19:35:17.953Z,5.66
2019-02-19T19:37:44.811Z,5.61
2019-02-19T19:40:12.031Z,5.56
2019-02-19T19:42:39.368Z,5.53
2019-02-19T19:45:06.368Z,5.47
2019-02-19T19:47:33.408Z,5.43
2019-02-19T19:50:03.412Z,5.39
2019-02-19T19:52:32.762Z,5.47
2019-02-19T19:55:00.767Z,5.61
2019-02-19T19:57:27.960Z,5.96
2019-02-19T19:59:56.707Z,6.38
2019-02-19T20:02:23.780Z,6.66
2019-02-19T20:04:50.891Z,6.88
2019-02-19T20:07:17.905Z,7.05
2019-02-19T20:09:45.227Z,7.25
2019-02-19T20:12:13.609Z,7.38
2019-02-19T20:14:41.051Z,7.41
2019-02-19T20:17:10.182Z,7.47
2019-02-19T20:19:39.563Z,7.54
2019-02-19T20:22:10.470Z,7.55
2019-02-19T20:24:38.052Z,7.51
2019-02-19T20:27:06.494Z,7.49
2019-02-19T20:29:33.565Z,7.48
2019-02-19T20:32:00.827Z,7.46
2019-02-19T20:34:28.329Z,7.42
2019-02-19T20:36:56.374Z,7.42
2019-02-19T20:39:23.577Z,7.44
2019-02-19T20:41:50.584Z,7.42
2019-02-19T20:44:17.777Z,7.39
2019-02-19T20:46:52.885Z,7.32
2019-02-19T20:49:20.158Z,7.21
2019-02-19T20:51:47.178Z,7.02
2019-02-19T20:54:14.944Z,6.86
2019-02-19T20:56:41.808Z,6.68
2019-02-19T20:59:10.698Z,6.48
2019-02-19T21:01:37.529Z,6.29
2019-02-19T21:04:04.390Z,6.10
2019-02-19T21:06:32.215Z,5.92
2019-02-19T21:08:59.598Z,5.74
2019-02-19T21:11:27.702Z,5.63
2019-02-19T21:13:54.767Z,5.53
2019-02-19T21:16:21.760Z,5.43
2019-02-19T21:18:49.524Z,5.38
2019-02-19T21:21:16.555Z,5.34
2019-02-19T21:23:43.261Z,5.33
2019-02-19T21:26:10.049Z,5.34
2019-02-19T21:28:36.900Z,5.32
2019-02-19T21:31:04.822Z,5.31
2019-02-19T21:33:31.601Z,5.29
2019-02-19T21:35:58.379Z,5.30
2019-02-19T21:38:26.089Z,5.28
2019-02-19T21:40:52.854Z,5.23
2019-02-19T21:43:19.514Z,5.17
2019-02-19T21:45:46.279Z,5.12
2019-02-19T21:48:12.961Z,5.04
2019-02-19T21:50:39.722Z,4.99
2019-02-19T21:53:06.484Z,4.95
2019-02-19T21:55:33.228Z,4.89
2019-02-19T21:58:02.396Z,4.84
2019-02-19T22:00:29.131Z,4.82
2019-02-19T22:02:55.899Z,4.85
2019-02-19T22:05:22.541Z,4.86
2019-02-19T22:07:49.288Z,4.86
2019-02-19T22:10:16.048Z,4.87
2019-02-19T22:12:44.798Z,4.87
2019-02-19T22:15:11.540Z,4.86
2019-02-19T22:17:38.312Z,4.84
2019-02-19T22:20:07.000Z,4.87
2019-02-19T22:22:34.082Z,4.90
2019-02-19T22:25:00.882Z,4.92
2019-02-19T22:27:27.588Z,4.92
2019-02-19T22:29:54.225Z,4.88
2019-02-19T22:32:20.864Z,4.80
2019-02-19T22:34:47.478Z,4.76
2019-02-19T22:37:14.174Z,4.73
2019-02-19T22:39:40.792Z,4.74
2019-02-19T22:42:07.469Z,4.75
2019-02-19T22:44:34.084Z,4.74
2019-02-19T22:47:00.706Z,4.71
2019-02-19T22:49:27.293Z,4.69
2019-02-19T22:51:53.884Z,4.68
2019-02-19T22:54:34.103Z,4.67
2019-02-19T22:57:00.799Z,4.65
2019-02-19T22:59:27.491Z,4.63
2019-02-19T23:02:12.626Z,4.64
2019-02-19T23:04:39.219Z,4.64
2019-02-19T23:07:06.751Z,4.64
2019-02-19T23:09:33.365Z,4.62
2019-02-19T23:11:59.935Z,4.58
2019-02-19T23:14:26.535Z,4.55
2019-02-19T23:16:53.173Z,4.53
2019-02-19T23:19:19.770Z,4.52
2019-02-19T23:21:46.376Z,4.51
2019-02-19T23:24:13.077Z,4.51
2019-02-19T23:26:39.762Z,4.50
2019-02-19T23:29:06.355Z,4.48
2019-02-19T23:31:32.948Z,4.47
2019-02-19T23:33:59.551Z,4.46
2019-02-19T23:36:33.437Z,4.47
2019-02-19T23:39:00.024Z,4.45
2019-02-19T23:41:26.619Z,4.44
2019-02-19T23:43:53.205Z,4.44
2019-02-19T23:46:19.796Z,4.44
2019-02-19T23:48:46.397Z,4.45
2019-02-19T23:51:13.117Z,4.44
2019-02-19T23:53:39.730Z,4.43
2019-02-19T23:56:06.315Z,4.45
2019-02-19T23:58:32.921Z,4.47
